Date,TemperatureHighF,TemperatureAvgF,TemperatureLowF,DewpointHighF,DewpointAvgF,DewpointLowF,HumidityHigh,HumidityAvg,HumidityLow,PressureMaxIn,PressureMinIn,WindSpeedMaxMPH,WindSpeedAvgMPH,GustSpeedMaxMPH,PrecipitationSumIn
2013-4-1,59.0,46.3,36.0,44.0,37.2,16.0,95,73,39,29.81,29.49,12,4,27,0.00
2013-4-2,39.0,34.4,30.0,18.0,15.1,12.0,55,45,35,29.91,29.75,14,7,28,0.00
2013-4-3,46.0,36.8,30.0,19.0,14.3,11.0,58,41,25,30.12,29.89,15,8,26,0.00
2013-4-4,55.0,42.5,28.0,25.0,18.6,14.0,62,40,23,30.28,30.01,11,4,18,0.00
2013-4-5,61.0,47.0,38.0,30.0,27.6,23.0,70,49,24,30.01,29.63,11,4,19,0.00
2013-4-6,45.0,36.7,28.0,25.0,13.5,9.0,57,40,24,30.33,29.86,14,5,29,0.00
2013-4-7,55.0,40.6,24.0,39.0,26.4,15.0,82,59,35,30.34,29.97,16,5,24,0.00
2013-4-8,66.0,50.2,40.0,43.0,38.8,34.0,92,68,32,30.11,29.93,9,2,15,0.00
2013-4-9,65.0,52.0,44.0,51.0,43.5,38.0,92,74,49,30.10,29.86,13,3,21,0.00
2013-4-10,57.0,49.3,44.0,50.0,45.4,41.0,95,87,75,30.00,29.86,10,1,15,0.00
2013-4-11,50.0,45.5,41.0,47.0,40.5,32.0,95,83,61,30.15,29.85,10,1,13,0.00
2013-4-12,42.0,37.3,35.0,36.0,32.3,28.0,95,83,57,30.21,29.83,5,1,18,0.00
2013-4-13,52.0,40.6,34.0,40.0,36.7,32.0,95,86,60,29.92,29.76,9,2,13,0.00
2013-4-14,51.0,45.4,39.0,39.0,35.4,31.0,94,70,47,30.20,29.92,11,3,20,0.00
2013-4-15,53.0,41.7,30.0,39.0,34.4,27.0,94,76,52,30.40,30.20,15,3,21,0.00
2013-4-16,65.0,50.7,33.0,52.0,41.7,31.0,95,73,50,30.40,30.02,12,5,27,0.00
2013-4-17,66.0,57.7,45.0,54.0,38.8,32.0,82,52,30,30.33,30.01,11,4,18,0.00
2013-4-18,55.0,46.6,32.0,42.0,35.3,29.0,93,66,41,30.45,30.16,14,5,22,0.00
2013-4-19,75.0,62.5,50.0,63.0,55.3,40.0,94,78,60,30.16,29.63,16,6,34,0.00
2013-4-20,68.0,53.9,45.0,64.0,41.9,26.0,93,67,38,30.19,29.58,14,6,25,0.00
2013-4-21,55.0,42.3,33.0,32.0,25.9,22.0,81,53,31,30.69,30.19,8,3,17,0.00
2013-4-22,50.0,40.1,29.0,37.0,30.5,26.0,89,71,42,30.79,30.63,9,2,19,0.00
2013-4-23,42.0,39.1,36.0,41.0,36.0,30.0,100,89,77,30.63,30.17,3,0,10,0.00
2013-4-24,68.0,52.4,41.0,56.0,47.2,40.0,95,83,60,30.18,29.78,12,3,18,0.00
2013-4-25,64.0,56.2,44.0,52.0,38.7,29.0,90,55,30,30.28,29.79,13,5,21,0.00
2013-4-26,57.0,46.1,33.0,41.0,35.7,30.0,92,69,43,30.43,30.28,10,2,16,0.00
2013-4-27,62.0,49.4,34.0,42.0,37.5,32.0,94,66,42,30.43,30.29,15,3,19,0.00
2013-4-28,63.0,50.3,36.0,46.0,39.6,33.0,93,69,44,30.34,30.23,16,3,22,0.00
2013-4-29,66.0,52.7,39.0,51.0,41.9,35.0,91,69,42,30.27,30.19,13,3,21,0.00
2013-4-30,67.0,54.2,38.0,41.0,36.1,33.0,90,55,30,30.33,30.25,11,3,17,0.00